sensor_id;sensor_type;location;lat;lon;timestamp;temperature;humidity
55004;DHT22;40900;52.710;6.438;2023-05-28T00:00:11;14.40;99.90
55004;DHT22;40900;52.710;6.438;2023-05-28T00:02:37;14.30;99.90
55004;DHT22;40900;52.710;6.438;2023-05-28T00:05:06;14.30;99.90
55004;DHT22;40900;52.710;6.438;2023-05-28T00:07:32;14.20;99.90
55004;DHT22;40900;52.710;6.438;2023-05-28T00:09:58;14.20;99.90
55004;DHT22;40900;52.710;6.438;2023-05-28T00:12:24;14.10;99.90
55004;DHT22;40900;52.710;6.438;2023-05-28T00:14:50;14.10;99.90
55004;DHT22;40900;52.710;6.438;2023-05-28T00:17:16;14.10;99.90
55004;DHT22;40900;52.710;6.438;2023-05-28T00:19:43;14.10;99.90
55004;DHT22;40900;52.710;6.438;2023-05-28T00:22:09;14.00;99.90
55004;DHT22;40900;52.710;6.438;2023-05-28T00:24:35;13.90;99.90
55004;DHT22;40900;52.710;6.438;2023-05-28T00:27:01;13.90;99.90
55004;DHT22;40900;52.710;6.438;2023-05-28T00:29:28;13.90;99.90
55004;DHT22;40900;52.710;6.438;2023-05-28T00:31:54;13.80;99.90
55004;DHT22;40900;52.710;6.438;2023-05-28T00:34:23;13.80;99.90
55004;DHT22;40900;52.710;6.438;2023-05-28T00:36:49;13.70;99.90
55004;DHT22;40900;52.710;6.438;2023-05-28T00:39:18;13.60;99.90
55004;DHT22;40900;52.710;6.438;2023-05-28T00:41:44;13.60;99.90
55004;DHT22;40900;52.710;6.438;2023-05-28T00:44:11;13.60;99.90
55004;DHT22;40900;52.710;6.438;2023-05-28T00:46:42;13.60;99.90
55004;DHT22;40900;52.710;6.438;2023-05-28T00:49:12;13.50;99.90
55004;DHT22;40900;52.710;6.438;2023-05-28T00:51:39;13.60;99.90
55004;DHT22;40900;52.710;6.438;2023-05-28T00:54:05;13.50;99.90
55004;DHT22;40900;52.710;6.438;2023-05-28T00:56:31;13.50;99.90
55004;DHT22;40900;52.710;6.438;2023-05-28T00:59:01;13.40;99.90
55004;DHT22;40900;52.710;6.438;2023-05-28T01:01:27;13.40;99.90
55004;DHT22;40900;52.710;6.438;2023-05-28T01:03:53;13.40;99.90
55004;DHT22;40900;52.710;6.438;2023-05-28T01:06:20;13.40;99.90
55004;DHT22;40900;52.710;6.438;2023-05-28T01:08:47;13.30;99.90
55004;DHT22;40900;52.710;6.438;2023-05-28T01:11:20;13.40;99.90
55004;DHT22;40900;52.710;6.438;2023-05-28T01:13:47;13.40;99.90
55004;DHT22;40900;52.710;6.438;2023-05-28T01:16:13;13.30;99.90
55004;DHT22;40900;52.710;6.438;2023-05-28T01:18:40;13.30;99.90
55004;DHT22;40900;52.710;6.438;2023-05-28T01:21:07;13.40;99.90
55004;DHT22;40900;52.710;6.438;2023-05-28T01:23:42;13.40;99.90
55004;DHT22;40900;52.710;6.438;2023-05-28T01:26:10;13.40;99.90
55004;DHT22;40900;52.710;6.438;2023-05-28T01:28:37;13.40;99.90
55004;DHT22;40900;52.710;6.438;2023-05-28T01:31:10;13.30;99.90
55004;DHT22;40900;52.710;6.438;2023-05-28T01:33:37;13.30;99.90
55004;DHT22;40900;52.710;6.438;2023-05-28T01:36:08;13.30;99.90
55004;DHT22;40900;52.710;6.438;2023-05-28T01:38:39;13.20;99.90
55004;DHT22;40900;52.710;6.438;2023-05-28T01:41:07;13.10;99.90
55004;DHT22;40900;52.710;6.438;2023-05-28T01:43:33;13.20;99.90
55004;DHT22;40900;52.710;6.438;2023-05-28T01:46:00;13.10;99.90
55004;DHT22;40900;52.710;6.438;2023-05-28T01:48:27;13.10;99.90
55004;DHT22;40900;52.710;6.438;2023-05-28T01:50:53;13.10;99.90
55004;DHT22;40900;52.710;6.438;2023-05-28T01:53:19;13.00;99.90
55004;DHT22;40900;52.710;6.438;2023-05-28T01:55:45;13.00;99.90
55004;DHT22;40900;52.710;6.438;2023-05-28T01:58:11;12.90;99.90
55004;DHT22;40900;52.710;6.438;2023-05-28T02:00:48;12.90;99.90
55004;DHT22;40900;52.710;6.438;2023-05-28T02:03:17;12.90;99.90
55004;DHT22;40900;52.710;6.438;2023-05-28T02:05:43;12.80;99.90
55004;DHT22;40900;52.710;6.438;2023-05-28T02:08:09;12.80;99.90
55004;DHT22;40900;52.710;6.438;2023-05-28T02:10:34;12.80;99.90
55004;DHT22;40900;52.710;6.438;2023-05-28T02:13:00;12.80;99.90
55004;DHT22;40900;52.710;6.438;2023-05-28T02:15:26;12.80;99.90
55004;DHT22;40900;52.710;6.438;2023-05-28T02:17:52;12.80;99.90
55004;DHT22;40900;52.710;6.438;2023-05-28T02:20:17;12.90;99.90
55004;DHT22;40900;52.710;6.438;2023-05-28T02:22:43;12.90;99.90
55004;DHT22;40900;52.710;6.438;2023-05-28T02:25:09;12.90;99.90
55004;DHT22;40900;52.710;6.438;2023-05-28T02:27:35;12.80;99.90
55004;DHT22;40900;52.710;6.438;2023-05-28T02:30:01;12.80;99.90
55004;DHT22;40900;52.710;6.438;2023-05-28T02:32:27;12.80;99.90
55004;DHT22;40900;52.710;6.438;2023-05-28T02:34:53;12.90;99.90
55004;DHT22;40900;52.710;6.438;2023-05-28T02:37:20;12.80;99.90
55004;DHT22;40900;52.710;6.438;2023-05-28T02:39:50;12.90;99.90
55004;DHT22;40900;52.710;6.438;2023-05-28T02:42:16;12.80;99.90
55004;DHT22;40900;52.710;6.438;2023-05-28T02:44:42;12.80;99.90
55004;DHT22;40900;52.710;6.438;2023-05-28T02:47:08;12.80;99.90
55004;DHT22;40900;52.710;6.438;2023-05-28T02:49:33;12.80;99.90
55004;DHT22;40900;52.710;6.438;2023-05-28T02:51:59;12.80;99.90
55004;DHT22;40900;52.710;6.438;2023-05-28T02:54:25;12.80;99.90
55004;DHT22;40900;52.710;6.438;2023-05-28T02:56:51;12.80;99.90
55004;DHT22;40900;52.710;6.438;2023-05-28T02:59:17;12.80;99.90
55004;DHT22;40900;52.710;6.438;2023-05-28T03:01:43;12.80;99.90
55004;DHT22;40900;52.710;6.438;2023-05-28T03:04:09;12.70;99.90
55004;DHT22;40900;52.710;6.438;2023-05-28T03:06:35;12.70;99.90
55004;DHT22;40900;52.710;6.438;2023-05-28T03:09:02;12.80;99.90
55004;DHT22;40900;52.710;6.438;2023-05-28T03:11:27;12.70;99.90
55004;DHT22;40900;52.710;6.438;2023-05-28T03:13:53;12.70;99.90
55004;DHT22;40900;52.710;6.438;2023-05-28T03:16:19;12.70;99.90
55004;DHT22;40900;52.710;6.438;2023-05-28T03:18:44;12.60;99.90
55004;DHT22;40900;52.710;6.438;2023-05-28T03:21:10;12.60;99.90
55004;DHT22;40900;52.710;6.438;2023-05-28T03:23:36;12.60;99.90
55004;DHT22;40900;52.710;6.438;2023-05-28T03:26:02;12.60;99.90
55004;DHT22;40900;52.710;6.438;2023-05-28T03:28:27;12.50;99.90
55004;DHT22;40900;52.710;6.438;2023-05-28T03:30:55;12.50;99.90
55004;DHT22;40900;52.710;6.438;2023-05-28T03:33:23;12.60;99.90
55004;DHT22;40900;52.710;6.438;2023-05-28T03:35:49;12.50;99.90
55004;DHT22;40900;52.710;6.438;2023-05-28T03:38:14;12.50;99.90
55004;DHT22;40900;52.710;6.438;2023-05-28T03:40:40;12.50;99.90
55004;DHT22;40900;52.710;6.438;2023-05-28T03:43:07;12.60;99.90
55004;DHT22;40900;52.710;6.438;2023-05-28T03:45:33;12.60;99.90
55004;DHT22;40900;52.710;6.438;2023-05-28T03:48:01;12.50;99.90
55004;DHT22;40900;52.710;6.438;2023-05-28T03:50:27;12.50;99.90
55004;DHT22;40900;52.710;6.438;2023-05-28T03:52:53;12.50;99.90
55004;DHT22;40900;52.710;6.438;2023-05-28T03:55:18;12.40;99.90
55004;DHT22;40900;52.710;6.438;2023-05-28T03:57:44;12.40;99.90
55004;DHT22;40900;52.710;6.438;2023-05-28T04:00:10;12.50;99.90
55004;DHT22;40900;52.710;6.438;2023-05-28T04:02:36;12.50;99.90
55004;DHT22;40900;52.710;6.438;2023-05-28T04:05:02;12.50;99.90
55004;DHT22;40900;52.710;6.438;2023-05-28T04:07:28;12.50;99.90
55004;DHT22;40900;52.710;6.438;2023-05-28T04:09:54;12.60;99.90
55004;DHT22;40900;52.710;6.438;2023-05-28T04:12:19;12.50;99.90
55004;DHT22;40900;52.710;6.438;2023-05-28T04:14:45;12.50;99.90
55004;DHT22;40900;52.710;6.438;2023-05-28T04:17:12;12.50;99.90
55004;DHT22;40900;52.710;6.438;2023-05-28T04:19:39;12.40;99.90
55004;DHT22;40900;52.710;6.438;2023-05-28T04:22:05;12.50;99.90
55004;DHT22;40900;52.710;6.438;2023-05-28T04:24:31;12.50;99.90
55004;DHT22;40900;52.710;6.438;2023-05-28T04:26:56;12.60;99.90
55004;DHT22;40900;52.710;6.438;2023-05-28T04:29:22;12.60;99.90
55004;DHT22;40900;52.710;6.438;2023-05-28T04:31:56;12.60;99.90
55004;DHT22;40900;52.710;6.438;2023-05-28T04:34:23;12.60;99.90
55004;DHT22;40900;52.710;6.438;2023-05-28T04:36:50;12.60;99.90
55004;DHT22;40900;52.710;6.438;2023-05-28T04:39:17;12.50;99.90
55004;DHT22;40900;52.710;6.438;2023-05-28T04:41:43;12.60;99.90
55004;DHT22;40900;52.710;6.438;2023-05-28T04:44:09;12.60;99.90
55004;DHT22;40900;52.710;6.438;2023-05-28T04:46:44;12.60;99.90
55004;DHT22;40900;52.710;6.438;2023-05-28T04:49:11;12.60;99.90
55004;DHT22;40900;52.710;6.438;2023-05-28T04:51:38;12.70;99.90
55004;DHT22;40900;52.710;6.438;2023-05-28T04:54:04;12.70;99.90
55004;DHT22;40900;52.710;6.438;2023-05-28T04:56:30;12.70;99.90
55004;DHT22;40900;52.710;6.438;2023-05-28T04:58:55;12.80;99.90
55004;DHT22;40900;52.710;6.438;2023-05-28T05:01:21;12.80;99.90
55004;DHT22;40900;52.710;6.438;2023-05-28T05:03:48;12.80;99.90
55004;DHT22;40900;52.710;6.438;2023-05-28T05:06:14;12.90;99.90
55004;DHT22;40900;52.710;6.438;2023-05-28T05:08:39;12.90;99.90
55004;DHT22;40900;52.710;6.438;2023-05-28T05:11:05;13.00;99.90
55004;DHT22;40900;52.710;6.438;2023-05-28T05:13:32;13.00;99.90
55004;DHT22;40900;52.710;6.438;2023-05-28T05:15:58;13.10;99.90
55004;DHT22;40900;52.710;6.438;2023-05-28T05:18:23;13.10;99.90
55004;DHT22;40900;52.710;6.438;2023-05-28T05:20:49;13.20;99.90
55004;DHT22;40900;52.710;6.438;2023-05-28T05:23:15;13.20;99.90
55004;DHT22;40900;52.710;6.438;2023-05-28T05:25:41;13.10;99.90
55004;DHT22;40900;52.710;6.438;2023-05-28T05:28:09;13.10;99.90
55004;DHT22;40900;52.710;6.438;2023-05-28T05:30:38;13.20;99.90
55004;DHT22;40900;52.710;6.438;2023-05-28T05:33:03;13.30;99.90
55004;DHT22;40900;52.710;6.438;2023-05-28T05:35:29;13.40;99.90
55004;DHT22;40900;52.710;6.438;2023-05-28T05:37:55;13.50;99.90
55004;DHT22;40900;52.710;6.438;2023-05-28T05:40:21;13.50;99.90
55004;DHT22;40900;52.710;6.438;2023-05-28T05:42:46;13.60;99.90
55004;DHT22;40900;52.710;6.438;2023-05-28T05:45:12;13.70;99.90
55004;DHT22;40900;52.710;6.438;2023-05-28T05:47:38;13.70;99.90
55004;DHT22;40900;52.710;6.438;2023-05-28T05:50:04;13.80;99.90
55004;DHT22;40900;52.710;6.438;2023-05-28T05:52:30;13.80;99.90
55004;DHT22;40900;52.710;6.438;2023-05-28T05:54:56;13.90;99.90
55004;DHT22;40900;52.710;6.438;2023-05-28T05:57:22;14.00;99.90
55004;DHT22;40900;52.710;6.438;2023-05-28T05:59:47;14.10;99.90
55004;DHT22;40900;52.710;6.438;2023-05-28T06:02:13;14.20;99.90
55004;DHT22;40900;52.710;6.438;2023-05-28T06:04:39;14.30;99.90
55004;DHT22;40900;52.710;6.438;2023-05-28T06:07:05;14.40;99.90
55004;DHT22;40900;52.710;6.438;2023-05-28T06:09:33;14.50;99.90
55004;DHT22;40900;52.710;6.438;2023-05-28T06:11:58;14.60;99.90
55004;DHT22;40900;52.710;6.438;2023-05-28T06:14:26;14.70;99.90
55004;DHT22;40900;52.710;6.438;2023-05-28T06:16:52;14.80;99.90
55004;DHT22;40900;52.710;6.438;2023-05-28T06:19:18;14.80;99.90
55004;DHT22;40900;52.710;6.438;2023-05-28T06:21:44;14.80;99.90
55004;DHT22;40900;52.710;6.438;2023-05-28T06:24:10;14.90;99.90
55004;DHT22;40900;52.710;6.438;2023-05-28T06:26:36;15.00;99.90
55004;DHT22;40900;52.710;6.438;2023-05-28T06:29:02;15.00;99.90
55004;DHT22;40900;52.710;6.438;2023-05-28T06:31:28;15.10;99.90
55004;DHT22;40900;52.710;6.438;2023-05-28T06:33:53;15.20;99.90
55004;DHT22;40900;52.710;6.438;2023-05-28T06:36:19;15.30;99.90
55004;DHT22;40900;52.710;6.438;2023-05-28T06:38:47;15.30;99.90
55004;DHT22;40900;52.710;6.438;2023-05-28T06:41:12;15.30;99.90
55004;DHT22;40900;52.710;6.438;2023-05-28T06:43:38;15.40;99.90
55004;DHT22;40900;52.710;6.438;2023-05-28T06:46:04;15.50;99.90
55004;DHT22;40900;52.710;6.438;2023-05-28T06:48:29;15.50;99.90
55004;DHT22;40900;52.710;6.438;2023-05-28T06:50:55;15.70;99.90
55004;DHT22;40900;52.710;6.438;2023-05-28T06:53:22;15.80;99.90
55004;DHT22;40900;52.710;6.438;2023-05-28T06:55:48;16.00;99.90
55004;DHT22;40900;52.710;6.438;2023-05-28T06:58:13;16.00;99.90
55004;DHT22;40900;52.710;6.438;2023-05-28T07:00:39;16.10;99.90
55004;DHT22;40900;52.710;6.438;2023-05-28T07:03:05;16.10;99.90
55004;DHT22;40900;52.710;6.438;2023-05-28T07:05:31;16.20;99.90
55004;DHT22;40900;52.710;6.438;2023-05-28T07:07:57;16.30;99.90
55004;DHT22;40900;52.710;6.438;2023-05-28T07:10:25;16.30;99.90
55004;DHT22;40900;52.710;6.438;2023-05-28T07:12:50;16.30;99.90
55004;DHT22;40900;52.710;6.438;2023-05-28T07:15:16;16.40;99.90
55004;DHT22;40900;52.710;6.438;2023-05-28T07:17:42;16.50;99.90
55004;DHT22;40900;52.710;6.438;2023-05-28T07:20:08;16.50;99.90
55004;DHT22;40900;52.710;6.438;2023-05-28T07:22:35;16.60;99.90
55004;DHT22;40900;52.710;6.438;2023-05-28T07:25:00;16.60;99.90
55004;DHT22;40900;52.710;6.438;2023-05-28T07:27:26;16.70;99.90
55004;DHT22;40900;52.710;6.438;2023-05-28T07:29:52;16.70;99.90
55004;DHT22;40900;52.710;6.438;2023-05-28T07:32:17;16.80;99.90
55004;DHT22;40900;52.710;6.438;2023-05-28T07:34:43;17.00;99.90
55004;DHT22;40900;52.710;6.438;2023-05-28T07:37:09;17.10;99.90
55004;DHT22;40900;52.710;6.438;2023-05-28T07:39:35;17.30;99.90
55004;DHT22;40900;52.710;6.438;2023-05-28T07:42:00;17.60;99.90
55004;DHT22;40900;52.710;6.438;2023-05-28T07:44:26;18.10;99.90
55004;DHT22;40900;52.710;6.438;2023-05-28T07:46:52;18.70;99.90
55004;DHT22;40900;52.710;6.438;2023-05-28T07:49:17;19.20;99.90
55004;DHT22;40900;52.710;6.438;2023-05-28T07:51:43;19.70;99.90
55004;DHT22;40900;52.710;6.438;2023-05-28T07:54:09;20.30;99.90
55004;DHT22;40900;52.710;6.438;2023-05-28T07:56:36;20.50;99.90
55004;DHT22;40900;52.710;6.438;2023-05-28T07:59:02;21.00;99.90
55004;DHT22;40900;52.710;6.438;2023-05-28T08:01:27;21.30;99.90
55004;DHT22;40900;52.710;6.438;2023-05-28T08:03:53;21.70;99.90
55004;DHT22;40900;52.710;6.438;2023-05-28T08:06:21;21.70;99.90
55004;DHT22;40900;52.710;6.438;2023-05-28T08:08:46;22.10;99.90
55004;DHT22;40900;52.710;6.438;2023-05-28T08:11:12;22.30;99.90
55004;DHT22;40900;52.710;6.438;2023-05-28T08:13:42;22.50;99.90
55004;DHT22;40900;52.710;6.438;2023-05-28T08:16:11;22.60;99.90
55004;DHT22;40900;52.710;6.438;2023-05-28T08:18:37;23.10;99.90
55004;DHT22;40900;52.710;6.438;2023-05-28T08:21:05;22.80;99.60
55004;DHT22;40900;52.710;6.438;2023-05-28T08:23:32;22.80;99.40
55004;DHT22;40900;52.710;6.438;2023-05-28T08:26:03;23.00;99.50
55004;DHT22;40900;52.710;6.438;2023-05-28T08:28:29;23.00;99.60
55004;DHT22;40900;52.710;6.438;2023-05-28T08:30:56;23.30;99.20
55004;DHT22;40900;52.710;6.438;2023-05-28T08:33:22;23.50;98.80
55004;DHT22;40900;52.710;6.438;2023-05-28T08:35:48;24.10;98.20
55004;DHT22;40900;52.710;6.438;2023-05-28T08:38:14;24.10;98.20
55004;DHT22;40900;52.710;6.438;2023-05-28T08:40:43;24.10;98.00
55004;DHT22;40900;52.710;6.438;2023-05-28T08:43:09;24.10;97.60
55004;DHT22;40900;52.710;6.438;2023-05-28T08:45:35;24.40;97.30
55004;DHT22;40900;52.710;6.438;2023-05-28T08:48:04;24.60;97.20
55004;DHT22;40900;52.710;6.438;2023-05-28T08:50:31;24.60;96.80
55004;DHT22;40900;52.710;6.438;2023-05-28T08:52:59;24.70;97.10
55004;DHT22;40900;52.710;6.438;2023-05-28T08:55:27;25.20;96.50
55004;DHT22;40900;52.710;6.438;2023-05-28T08:57:52;25.30;96.00
55004;DHT22;40900;52.710;6.438;2023-05-28T09:00:20;25.30;95.50
55004;DHT22;40900;52.710;6.438;2023-05-28T09:02:47;25.10;95.50
55004;DHT22;40900;52.710;6.438;2023-05-28T09:05:13;25.30;95.70
55004;DHT22;40900;52.710;6.438;2023-05-28T09:07:38;25.60;95.40
55004;DHT22;40900;52.710;6.438;2023-05-28T09:10:04;26.10;95.10
55004;DHT22;40900;52.710;6.438;2023-05-28T09:12:30;26.10;94.00
55004;DHT22;40900;52.710;6.438;2023-05-28T09:14:56;26.50;94.30
55004;DHT22;40900;52.710;6.438;2023-05-28T09:17:32;26.40;94.10
55004;DHT22;40900;52.710;6.438;2023-05-28T09:19:59;26.40;93.30
55004;DHT22;40900;52.710;6.438;2023-05-28T09:22:30;26.40;93.40
55004;DHT22;40900;52.710;6.438;2023-05-28T09:24:56;26.40;93.70
55004;DHT22;40900;52.710;6.438;2023-05-28T09:27:26;26.50;93.40
55004;DHT22;40900;52.710;6.438;2023-05-28T09:29:52;26.70;93.30
55004;DHT22;40900;52.710;6.438;2023-05-28T09:32:19;26.60;92.60
55004;DHT22;40900;52.710;6.438;2023-05-28T09:34:50;26.70;92.70
55004;DHT22;40900;52.710;6.438;2023-05-28T09:37:17;27.00;92.30
55004;DHT22;40900;52.710;6.438;2023-05-28T09:39:43;26.60;91.90
55004;DHT22;40900;52.710;6.438;2023-05-28T09:42:10;26.70;91.70
55004;DHT22;40900;52.710;6.438;2023-05-28T09:44:37;26.90;91.80
55004;DHT22;40900;52.710;6.438;2023-05-28T09:47:14;26.90;91.60
55004;DHT22;40900;52.710;6.438;2023-05-28T09:49:45;27.10;91.00
55004;DHT22;40900;52.710;6.438;2023-05-28T09:52:30;27.10;90.90
55004;DHT22;40900;52.710;6.438;2023-05-28T09:54:56;27.40;90.70
55004;DHT22;40900;52.710;6.438;2023-05-28T09:57:26;27.20;91.10
55004;DHT22;40900;52.710;6.438;2023-05-28T09:59:53;27.50;90.90
55004;DHT22;40900;52.710;6.438;2023-05-28T10:02:46;27.40;90.80
55004;DHT22;40900;52.710;6.438;2023-05-28T10:05:16;27.40;90.50
55004;DHT22;40900;52.710;6.438;2023-05-28T10:07:46;27.40;91.10
55004;DHT22;40900;52.710;6.438;2023-05-28T10:10:14;28.00;90.60
55004;DHT22;40900;52.710;6.438;2023-05-28T10:12:42;27.90;90.70
55004;DHT22;40900;52.710;6.438;2023-05-28T10:15:08;27.60;90.20
55004;DHT22;40900;52.710;6.438;2023-05-28T10:17:35;27.50;90.40
55004;DHT22;40900;52.710;6.438;2023-05-28T10:20:01;27.90;90.20
55004;DHT22;40900;52.710;6.438;2023-05-28T10:22:30;28.30;90.10
55004;DHT22;40900;52.710;6.438;2023-05-28T10:24:56;28.00;89.80
55004;DHT22;40900;52.710;6.438;2023-05-28T10:27:29;28.30;90.00
55004;DHT22;40900;52.710;6.438;2023-05-28T10:29:56;28.20;89.60
55004;DHT22;40900;52.710;6.438;2023-05-28T10:32:21;28.30;89.10
55004;DHT22;40900;52.710;6.438;2023-05-28T10:34:47;28.30;89.10
55004;DHT22;40900;52.710;6.438;2023-05-28T10:37:13;28.50;89.80
55004;DHT22;40900;52.710;6.438;2023-05-28T10:39:47;28.60;88.10
55004;DHT22;40900;52.710;6.438;2023-05-28T10:42:14;28.40;87.40
55004;DHT22;40900;52.710;6.438;2023-05-28T10:47:32;28.60;87.50
55004;DHT22;40900;52.710;6.438;2023-05-28T10:50:11;28.50;86.80
55004;DHT22;40900;52.710;6.438;2023-05-28T10:52:37;28.30;86.50
55004;DHT22;40900;52.710;6.438;2023-05-28T10:55:08;28.60;87.00
55004;DHT22;40900;52.710;6.438;2023-05-28T10:57:45;28.50;86.40
55004;DHT22;40900;52.710;6.438;2023-05-28T11:00:12;28.50;84.10
55004;DHT22;40900;52.710;6.438;2023-05-28T11:02:43;28.80;85.90
55004;DHT22;40900;52.710;6.438;2023-05-28T11:05:10;28.70;84.30
55004;DHT22;40900;52.710;6.438;2023-05-28T11:07:36;28.80;84.30
55004;DHT22;40900;52.710;6.438;2023-05-28T11:10:07;28.90;84.80
55004;DHT22;40900;52.710;6.438;2023-05-28T11:12:37;28.80;83.90
55004;DHT22;40900;52.710;6.438;2023-05-28T11:15:08;28.20;83.00
55004;DHT22;40900;52.710;6.438;2023-05-28T11:17:38;27.80;83.90
55004;DHT22;40900;52.710;6.438;2023-05-28T11:20:04;27.70;83.70
55004;DHT22;40900;52.710;6.438;2023-05-28T11:22:34;27.80;84.30
55004;DHT22;40900;52.710;6.438;2023-05-28T11:25:07;27.50;84.60
55004;DHT22;40900;52.710;6.438;2023-05-28T11:27:34;27.50;84.40
55004;DHT22;40900;52.710;6.438;2023-05-28T11:30:13;27.30;84.80
55004;DHT22;40900;52.710;6.438;2023-05-28T11:32:41;27.40;84.60
55004;DHT22;40900;52.710;6.438;2023-05-28T11:35:09;27.40;84.50
55004;DHT22;40900;52.710;6.438;2023-05-28T11:37:37;27.40;83.90
55004;DHT22;40900;52.710;6.438;2023-05-28T11:40:05;27.20;83.20
55004;DHT22;40900;52.710;6.438;2023-05-28T11:42:35;26.90;83.20
55004;DHT22;40900;52.710;6.438;2023-05-28T11:45:01;27.00;84.90
55004;DHT22;40900;52.710;6.438;2023-05-28T11:47:26;26.80;83.70
55004;DHT22;40900;52.710;6.438;2023-05-28T11:49:52;26.80;82.70
55004;DHT22;40900;52.710;6.438;2023-05-28T11:52:23;26.90;84.20
55004;DHT22;40900;52.710;6.438;2023-05-28T11:54:54;26.90;83.60
55004;DHT22;40900;52.710;6.438;2023-05-28T11:57:22;26.90;82.20
55004;DHT22;40900;52.710;6.438;2023-05-28T12:02:25;26.60;82.30
55004;DHT22;40900;52.710;6.438;2023-05-28T12:05:01;26.60;82.40
55004;DHT22;40900;52.710;6.438;2023-05-28T12:07:37;26.60;82.80
55004;DHT22;40900;52.710;6.438;2023-05-28T12:10:07;26.70;81.00
55004;DHT22;40900;52.710;6.438;2023-05-28T12:12:34;26.60;80.70
55004;DHT22;40900;52.710;6.438;2023-05-28T12:15:04;26.60;81.00
55004;DHT22;40900;52.710;6.438;2023-05-28T12:17:35;26.50;81.20
55004;DHT22;40900;52.710;6.438;2023-05-28T12:23:00;26.20;79.50
55004;DHT22;40900;52.710;6.438;2023-05-28T12:25:26;26.20;80.80
55004;DHT22;40900;52.710;6.438;2023-05-28T12:27:51;26.40;80.90
55004;DHT22;40900;52.710;6.438;2023-05-28T12:30:17;26.20;79.10
55004;DHT22;40900;52.710;6.438;2023-05-28T12:32:43;26.20;78.60
55004;DHT22;40900;52.710;6.438;2023-05-28T12:35:08;26.00;77.90
55004;DHT22;40900;52.710;6.438;2023-05-28T12:37:34;25.80;78.40
55004;DHT22;40900;52.710;6.438;2023-05-28T12:40:00;25.90;78.60
55004;DHT22;40900;52.710;6.438;2023-05-28T12:42:25;25.80;77.80
55004;DHT22;40900;52.710;6.438;2023-05-28T12:44:51;25.80;78.40
55004;DHT22;40900;52.710;6.438;2023-05-28T12:47:17;25.90;78.40
55004;DHT22;40900;52.710;6.438;2023-05-28T12:49:43;25.90;77.60
55004;DHT22;40900;52.710;6.438;2023-05-28T12:52:08;26.10;76.80
55004;DHT22;40900;52.710;6.438;2023-05-28T12:54:34;25.90;77.10
55004;DHT22;40900;52.710;6.438;2023-05-28T12:57:00;26.00;77.00
55004;DHT22;40900;52.710;6.438;2023-05-28T12:59:27;25.80;76.50
55004;DHT22;40900;52.710;6.438;2023-05-28T13:01:54;25.70;77.00
55004;DHT22;40900;52.710;6.438;2023-05-28T13:04:24;25.60;76.40
55004;DHT22;40900;52.710;6.438;2023-05-28T13:06:50;25.70;75.70
55004;DHT22;40900;52.710;6.438;2023-05-28T13:09:19;25.60;75.90
55004;DHT22;40900;52.710;6.438;2023-05-28T13:11:44;25.70;75.80
55004;DHT22;40900;52.710;6.438;2023-05-28T13:14:10;25.50;76.20
55004;DHT22;40900;52.710;6.438;2023-05-28T13:16:37;25.70;76.80
55004;DHT22;40900;52.710;6.438;2023-05-28T13:19:05;25.80;77.10
55004;DHT22;40900;52.710;6.438;2023-05-28T13:21:32;25.90;77.70
55004;DHT22;40900;52.710;6.438;2023-05-28T13:24:04;25.90;76.60
55004;DHT22;40900;52.710;6.438;2023-05-28T13:26:33;25.90;78.40
55004;DHT22;40900;52.710;6.438;2023-05-28T13:28:59;26.10;78.70
55004;DHT22;40900;52.710;6.438;2023-05-28T13:31:25;25.80;76.20
55004;DHT22;40900;52.710;6.438;2023-05-28T13:33:51;25.80;78.10
55004;DHT22;40900;52.710;6.438;2023-05-28T13:36:18;25.90;78.20
55004;DHT22;40900;52.710;6.438;2023-05-28T13:38:44;26.00;78.10
55004;DHT22;40900;52.710;6.438;2023-05-28T13:41:13;25.80;78.40
55004;DHT22;40900;52.710;6.438;2023-05-28T13:43:40;26.00;78.30
55004;DHT22;40900;52.710;6.438;2023-05-28T13:46:06;25.90;77.80
55004;DHT22;40900;52.710;6.438;2023-05-28T13:48:32;25.80;77.10
55004;DHT22;40900;52.710;6.438;2023-05-28T13:50:59;25.70;78.40
55004;DHT22;40900;52.710;6.438;2023-05-28T13:53:29;25.70;78.00
55004;DHT22;40900;52.710;6.438;2023-05-28T13:55:56;25.80;78.90
55004;DHT22;40900;52.710;6.438;2023-05-28T13:58:23;25.80;79.60
55004;DHT22;40900;52.710;6.438;2023-05-28T14:00:49;25.80;81.20
55004;DHT22;40900;52.710;6.438;2023-05-28T14:03:15;25.70;80.70
55004;DHT22;40900;52.710;6.438;2023-05-28T14:05:43;25.50;80.80
55004;DHT22;40900;52.710;6.438;2023-05-28T14:08:09;25.60;82.20
55004;DHT22;40900;52.710;6.438;2023-05-28T14:10:35;25.50;82.40
55004;DHT22;40900;52.710;6.438;2023-05-28T14:13:01;25.50;82.70
55004;DHT22;40900;52.710;6.438;2023-05-28T14:15:27;25.50;83.60
55004;DHT22;40900;52.710;6.438;2023-05-28T14:17:53;25.40;86.00
55004;DHT22;40900;52.710;6.438;2023-05-28T14:20:19;25.20;87.20
55004;DHT22;40900;52.710;6.438;2023-05-28T14:22:44;25.10;88.10
55004;DHT22;40900;52.710;6.438;2023-05-28T14:25:11;25.30;88.90
55004;DHT22;40900;52.710;6.438;2023-05-28T14:27:37;25.10;89.30
55004;DHT22;40900;52.710;6.438;2023-05-28T14:30:04;25.20;90.10
55004;DHT22;40900;52.710;6.438;2023-05-28T14:32:30;25.20;90.40
55004;DHT22;40900;52.710;6.438;2023-05-28T14:34:58;25.00;90.50
55004;DHT22;40900;52.710;6.438;2023-05-28T14:37:24;25.10;90.60
55004;DHT22;40900;52.710;6.438;2023-05-28T14:39:50;25.10;90.80
55004;DHT22;40900;52.710;6.438;2023-05-28T14:42:16;24.80;91.10
55004;DHT22;40900;52.710;6.438;2023-05-28T14:44:41;24.80;91.50
55004;DHT22;40900;52.710;6.438;2023-05-28T14:47:07;24.50;91.90
55004;DHT22;40900;52.710;6.438;2023-05-28T14:49:33;24.40;92.10
55004;DHT22;40900;52.710;6.438;2023-05-28T14:52:20;24.20;91.90
55004;DHT22;40900;52.710;6.438;2023-05-28T14:54:47;24.20;92.20
55004;DHT22;40900;52.710;6.438;2023-05-28T14:57:13;24.20;92.30
55004;DHT22;40900;52.710;6.438;2023-05-28T14:59:39;24.30;92.40
55004;DHT22;40900;52.710;6.438;2023-05-28T15:02:05;24.30;92.40
55004;DHT22;40900;52.710;6.438;2023-05-28T15:04:30;24.20;92.00
55004;DHT22;40900;52.710;6.438;2023-05-28T15:06:56;24.30;92.40
55004;DHT22;40900;52.710;6.438;2023-05-28T15:09:26;24.20;92.50
55004;DHT22;40900;52.710;6.438;2023-05-28T15:11:52;24.00;92.30
55004;DHT22;40900;52.710;6.438;2023-05-28T15:14:18;24.10;92.50
55004;DHT22;40900;52.710;6.438;2023-05-28T15:16:44;23.90;92.40
55004;DHT22;40900;52.710;6.438;2023-05-28T15:19:11;23.90;92.70
55004;DHT22;40900;52.710;6.438;2023-05-28T15:21:37;24.00;93.00
55004;DHT22;40900;52.710;6.438;2023-05-28T15:24:03;23.90;92.60
55004;DHT22;40900;52.710;6.438;2023-05-28T15:26:29;23.90;92.40
55004;DHT22;40900;52.710;6.438;2023-05-28T15:28:56;23.80;92.40
55004;DHT22;40900;52.710;6.438;2023-05-28T15:31:22;23.70;92.40
55004;DHT22;40900;52.710;6.438;2023-05-28T15:33:49;23.70;92.40
55004;DHT22;40900;52.710;6.438;2023-05-28T15:36:15;23.60;92.30